createdAt,value
2019-04-26T17:52:06.714Z,6.33
2019-04-26T17:54:46.327Z,8.57
2019-04-26T17:57:08.863Z,6.13
2019-04-26T17:59:45.249Z,6.47
2019-04-26T18:02:20.579Z,5.90
2019-04-26T18:04:43.507Z,9.33
2019-04-26T18:07:37.545Z,6.93
2019-04-26T18:09:46.839Z,7.53
2019-04-26T18:12:16.477Z,7.03
2019-04-26T18:14:45.946Z,9.40
2019-04-26T18:17:24.963Z,7.60
2019-04-26T18:20:05.115Z,7.63
2019-04-26T18:22:42.808Z,9.10
2019-04-26T18:25:13.064Z,8.20
2019-04-26T18:27:43.631Z,7.80
2019-04-26T18:30:14.362Z,7.63
2019-04-26T18:32:47.679Z,7.20
2019-04-26T18:35:16.869Z,6.90
2019-04-26T18:37:46.469Z,7.37
2019-04-26T18:40:16.048Z,7.43
2019-04-26T18:42:45.487Z,7.57
2019-04-26T18:45:21.233Z,6.87
2019-04-26T18:47:46.200Z,9.00
2019-04-26T18:50:16.170Z,7.33
2019-04-26T18:52:59.894Z,8.97
2019-04-26T18:55:31.147Z,8.60
2019-04-26T18:58:03.376Z,11.20
2019-04-26T19:00:36.262Z,7.00
2019-04-26T19:03:05.843Z,7.20
2019-04-26T19:05:35.524Z,7.93
2019-04-26T19:08:07.538Z,9.33
2019-04-26T19:10:38.754Z,7.93
2019-04-26T19:13:25.279Z,10.47
2019-04-26T19:16:01.202Z,7.67
2019-04-26T19:18:47.143Z,7.80
2019-04-26T19:21:38.945Z,7.63
2019-04-26T19:24:11.670Z,10.37
2019-04-26T19:26:38.083Z,10.20
2019-04-26T19:29:16.363Z,11.37
2019-04-26T19:31:41.270Z,8.70
2019-04-26T19:34:11.673Z,8.57
2019-04-26T19:36:42.078Z,11.87
2019-04-26T19:39:12.111Z,9.13
2019-04-26T19:41:42.028Z,9.27
2019-04-26T19:44:14.787Z,9.70
2019-04-26T19:47:03.258Z,11.27
2019-04-26T19:49:52.363Z,9.63
2019-04-26T19:52:23.193Z,13.03
2019-04-26T19:54:54.348Z,10.13
2019-04-26T19:57:42.690Z,13.67
2019-04-26T20:00:13.253Z,9.93
2019-04-26T20:02:42.760Z,15.37
2019-04-26T20:05:12.382Z,12.67
2019-04-26T20:07:41.808Z,13.00
2019-04-26T20:10:12.861Z,12.40
2019-04-26T20:12:42.402Z,10.77
2019-04-26T20:15:25.147Z,13.17
2019-04-26T20:17:43.025Z,13.00
2019-04-26T20:20:20.179Z,11.57
2019-04-26T20:22:43.712Z,14.80
2019-04-26T20:25:13.241Z,10.73
2019-04-26T20:27:42.672Z,12.43
2019-04-26T20:30:32.235Z,11.73
2019-04-26T20:33:01.851Z,14.20
2019-04-26T20:35:31.901Z,11.43
2019-04-26T20:38:04.654Z,16.10
2019-04-26T20:40:32.537Z,15.83
2019-04-26T20:43:05.844Z,13.23
2019-04-26T20:45:41.381Z,12.20
2019-04-26T20:48:04.290Z,13.20
2019-04-26T20:50:36.773Z,13.23
2019-04-26T20:53:05.981Z,13.90
2019-04-26T20:55:37.064Z,19.37
2019-04-26T20:58:08.612Z,21.00
2019-04-26T21:00:38.105Z,20.93
2019-04-26T21:03:20.131Z,23.67
2019-04-26T21:05:46.130Z,28.50
2019-04-26T21:08:09.960Z,30.23
2019-04-26T21:10:39.541Z,33.33
2019-04-26T21:13:09.417Z,34.67
2019-04-26T21:15:51.933Z,35.70
2019-04-26T21:18:10.076Z,40.80
2019-04-26T21:20:39.508Z,38.87
2019-04-26T21:23:09.273Z,38.63
2019-04-26T21:25:57.019Z,40.10
2019-04-26T21:28:28.232Z,42.70
2019-04-26T21:31:08.684Z,45.33
2019-04-26T21:33:49.177Z,43.83
2019-04-26T21:36:26.338Z,46.20
2019-04-26T21:39:07.490Z,44.83
2019-04-26T21:41:40.410Z,47.07
2019-04-26T21:44:12.340Z,45.93
2019-04-26T21:46:40.959Z,48.40
2019-04-26T21:49:17.070Z,49.07
2019-04-26T21:51:44.633Z,50.50
2019-04-26T21:54:14.448Z,49.50
2019-04-26T21:56:48.566Z,49.40
2019-04-26T21:59:15.029Z,47.20
2019-04-26T22:01:48.179Z,50.63
2019-04-26T22:04:15.699Z,50.73
2019-04-26T22:06:46.627Z,48.33
2019-04-26T22:09:21.633Z,49.87
2019-04-26T22:11:53.997Z,52.57
2019-04-26T22:14:27.294Z,45.17
2019-04-26T22:17:02.212Z,48.27
2019-04-26T22:19:35.340Z,41.93
2019-04-26T22:22:09.372Z,43.03
2019-04-26T22:24:40.453Z,37.23
2019-04-26T22:27:09.906Z,40.07
2019-04-26T22:29:39.379Z,39.97
2019-04-26T22:32:11.502Z,39.77
2019-04-26T22:34:42.700Z,35.77
2019-04-26T22:37:12.905Z,37.77
2019-04-26T22:39:44.410Z,36.03
2019-04-26T22:42:14.808Z,34.63
2019-04-26T22:44:55.041Z,36.27
2019-04-26T22:47:26.196Z,36.47
2019-04-26T22:49:55.765Z,35.47
2019-04-26T22:52:25.310Z,31.60
2019-04-26T22:54:55.270Z,33.63
2019-04-26T22:57:24.707Z,27.90
2019-04-26T22:59:54.124Z,29.37
2019-04-26T23:02:27.592Z,29.50
2019-04-26T23:04:56.097Z,29.23
2019-04-26T23:07:26.507Z,27.33
2019-04-26T23:09:55.951Z,26.23
2019-04-26T23:12:28.255Z,27.93
2019-04-26T23:14:59.721Z,26.70
2019-04-26T23:17:43.947Z,26.50
2019-04-26T23:20:16.825Z,25.97
2019-04-26T23:22:46.299Z,26.33
2019-04-26T23:25:15.811Z,26.13
2019-04-26T23:27:45.209Z,27.73
2019-04-26T23:30:16.171Z,30.40
2019-04-26T23:32:48.562Z,30.07
2019-04-26T23:35:16.799Z,26.53
2019-04-26T23:37:46.204Z,26.43
2019-04-26T23:40:15.626Z,26.00
2019-04-26T23:42:47.553Z,26.57
2019-04-26T23:45:16.329Z,27.87
2019-04-26T23:47:45.777Z,26.47
2019-04-26T23:50:15.228Z,29.03
2019-04-26T23:52:49.209Z,27.03
2019-04-26T23:55:15.835Z,29.33
2019-04-26T23:57:45.304Z,30.20
